Time;durP1;ratioP1;P1;durP2;ratioP2;P2;SDS_P1;SDS_P2;PMS_P1;PMS_P2;Temp;Humidity;BMP_temperature;BMP_pressure;BME280_temperature;BME280_humidity;BME280_pressure;Samples;Min_cycle;Max_cycle;Signal;HPM_P1;HPM_P2
2022/09/18 04:01:14;;;;;;;2.80;1.63;;;11.00;99.90;;;;;;5601794;23;20550;-64
2022/09/18 04:03:41;;;;;;;1.57;1.47;;;11.00;99.90;;;;;;4957906;28;20447;-63
2022/09/18 04:06:08;;;;;;;2.20;1.53;;;11.00;99.90;;;;;;4957633;28;20463;-63
2022/09/18 04:08:36;;;;;;;3.07;1.60;;;11.00;99.90;;;;;;4957545;28;20455;-63
2022/09/18 04:11:04;;;;;;;1.93;1.67;;;11.00;99.90;;;;;;4957461;28;20530;-63
2022/09/18 04:13:31;;;;;;;3.13;1.77;;;11.00;99.90;;;;;;4957473;28;20443;-64
2022/09/18 04:15:58;;;;;;;4.13;2.30;;;11.00;99.90;;;;;;4957459;28;20532;-64
2022/09/18 04:18:26;;;;;;;2.47;1.60;;;11.00;99.90;;;;;;4957443;28;20460;-63
2022/09/18 04:20:52;;;;;;;2.67;1.73;;;10.90;99.90;;;;;;4957346;28;20480;-63
2022/09/18 04:23:19;;;;;;;3.47;1.63;;;11.00;99.90;;;;;;4957340;28;20464;-63
2022/09/18 04:25:46;;;;;;;2.77;1.87;;;10.90;99.90;;;;;;4957191;28;20451;-64
2022/09/18 04:28:13;;;;;;;2.40;1.43;;;10.90;99.90;;;;;;4957157;28;20506;-63
2022/09/18 04:30:40;;;;;;;2.37;1.50;;;10.90;99.90;;;;;;4957133;28;20480;-64
2022/09/18 04:33:07;;;;;;;2.47;1.80;;;10.90;99.90;;;;;;4957207;28;20871;-63
2022/09/18 04:35:35;;;;;;;2.53;1.63;;;10.90;99.90;;;;;;4957064;28;20570;-63
2022/09/18 04:38:02;;;;;;;2.93;1.37;;;10.90;99.90;;;;;;4957018;28;20456;-63
2022/09/18 04:40:28;;;;;;;3.27;1.53;;;10.90;99.90;;;;;;4956807;28;20459;-63
2022/09/18 04:42:55;;;;;;;2.10;1.83;;;10.90;99.90;;;;;;4957734;28;20464;-63
2022/09/18 04:45:22;;;;;;;3.20;1.60;;;10.90;99.90;;;;;;4957011;28;20482;-63
2022/09/18 04:47:49;;;;;;;3.57;1.77;;;10.90;99.90;;;;;;4956689;28;21050;-63
2022/09/18 04:50:15;;;;;;;3.87;2.30;;;10.90;99.90;;;;;;4956839;29;20491;-63
2022/09/18 04:52:44;;;;;;;1.97;1.57;;;11.00;99.90;;;;;;4956841;28;20856;-63
2022/09/18 04:55:10;;;;;;;2.53;1.70;;;10.90;99.90;;;;;;4956790;28;20511;-63
2022/09/18 04:57:37;;;;;;;2.63;1.50;;;10.90;99.90;;;;;;4956631;28;20514;-63
2022/09/18 05:00:06;;;;;;;1.73;1.63;;;10.90;99.90;;;;;;4956579;28;20506;-64
2022/09/18 05:02:33;;;;;;;4.00;1.70;;;11.00;99.90;;;;;;4956235;28;20494;-64
2022/09/18 05:05:00;;;;;;;2.60;1.60;;;11.00;99.90;;;;;;4957567;28;20452;-64
2022/09/18 05:07:26;;;;;;;1.90;1.80;;;11.10;99.90;;;;;;4957146;28;20467;-64
2022/09/18 05:09:54;;;;;;;4.20;2.00;;;11.00;99.90;;;;;;4957074;28;20462;-64
2022/09/18 05:12:21;;;;;;;2.20;1.83;;;11.10;99.90;;;;;;4957008;28;20483;-64
2022/09/18 05:14:48;;;;;;;4.53;2.10;;;11.20;99.90;;;;;;4956795;28;20484;-64
2022/09/18 05:17:15;;;;;;;1.93;1.77;;;11.10;99.90;;;;;;4956633;28;20933;-64
2022/09/18 05:19:41;;;;;;;2.43;2.10;;;11.10;99.90;;;;;;4956539;28;20861;-64
2022/09/18 05:22:08;;;;;;;2.40;1.90;;;11.10;99.90;;;;;;4956209;28;21014;-64
2022/09/18 05:24:35;;;;;;;2.63;2.00;;;11.00;99.90;;;;;;4956351;28;20464;-65
2022/09/18 05:27:03;;;;;;;4.67;2.07;;;11.10;99.90;;;;;;4956447;28;21014;-64
2022/09/18 05:29:30;;;;;;;2.63;2.37;;;11.10;99.90;;;;;;4957047;28;20542;-64
2022/09/18 05:31:56;;;;;;;5.60;2.47;;;11.10;99.90;;;;;;4956498;28;20483;-64
2022/09/18 05:34:23;;;;;;;2.97;2.13;;;11.10;99.90;;;;;;4956639;28;20487;-64
2022/09/18 05:36:50;;;;;;;2.33;2.20;;;11.10;99.90;;;;;;4956879;28;20540;-64
2022/09/18 05:39:16;;;;;;;3.00;2.37;;;11.10;99.90;;;;;;4956593;28;20514;-65
2022/09/18 05:41:43;;;;;;;5.13;2.73;;;11.10;99.90;;;;;;4956390;28;21010;-65
2022/09/18 05:44:11;;;;;;;3.87;2.03;;;11.10;99.90;;;;;;4956530;28;20455;-64
2022/09/18 05:46:38;;;;;;;3.63;2.50;;;11.00;99.90;;;;;;4956502;28;20451;-64
2022/09/18 05:49:05;;;;;;;3.13;2.40;;;11.00;99.90;;;;;;4956437;28;20463;-64
2022/09/18 05:51:32;;;;;;;3.40;2.60;;;11.00;99.90;;;;;;4956230;28;20474;-64
2022/09/18 05:53:58;;;;;;;3.63;2.40;;;11.10;99.90;;;;;;4956063;28;20463;-64
2022/09/18 05:56:26;;;;;;;2.67;2.30;;;11.10;99.90;;;;;;4956259;28;20468;-64
2022/09/18 05:58:53;;;;;;;2.27;2.17;;;11.10;99.90;;;;;;4956183;28;20459;-64
2022/09/18 06:01:21;;;;;;;6.67;2.70;;;11.00;99.90;;;;;;4955558;28;20483;-64
2022/09/18 06:03:49;;;;;;;2.60;2.30;;;11.00;99.90;;;;;;4956009;28;20459;-64
2022/09/18 06:06:16;;;;;;;4.43;2.60;;;11.00;99.90;;;;;;4955862;28;20454;-64
2022/09/18 06:08:43;;;;;;;3.90;2.40;;;11.00;99.90;;;;;;4956264;28;20456;-64
2022/09/18 06:11:09;;;;;;;2.70;2.50;;;11.00;99.90;;;;;;4955768;28;20887;-65
2022/09/18 06:13:36;;;;;;;2.90;2.70;;;10.90;99.90;;;;;;4956083;28;20446;-64
2022/09/18 06:16:03;;;;;;;3.50;2.57;;;10.90;99.90;;;;;;4955870;28;20879;-64
2022/09/18 06:18:31;;;;;;;3.30;3.07;;;10.90;99.90;;;;;;4956098;28;20483;-64
2022/09/18 06:20:59;;;;;;;6.20;2.67;;;11.00;99.90;;;;;;4955660;28;20531;-64
2022/09/18 06:23:28;;;;;;;3.27;2.97;;;11.00;99.90;;;;;;4955853;28;20466;-64
2022/09/18 06:25:59;;;;;;;4.23;2.60;;;11.00;99.90;;;;;;4956011;28;20455;-63
2022/09/18 06:28:26;;;;;;;2.70;2.50;;;11.10;99.90;;;;;;4955893;28;20942;-64
2022/09/18 06:30:53;;;;;;;5.23;2.70;;;11.00;99.90;;;;;;4955666;28;20479;-64
2022/09/18 06:33:19;;;;;;;2.93;2.73;;;11.00;99.90;;;;;;4957561;28;20554;-64
2022/09/18 06:35:48;;;;;;;3.20;2.83;;;11.00;99.90;;;;;;4959395;28;20486;-64
2022/09/18 06:38:16;;;;;;;6.07;3.40;;;11.10;99.90;;;;;;4959488;28;20479;-65
2022/09/18 06:40:49;;;;;;;3.33;2.80;;;11.00;99.90;;;;;;4959149;28;20471;-64
2022/09/18 06:43:16;;;;;;;4.50;3.17;;;11.00;99.90;;;;;;4959634;28;20534;-65
2022/09/18 06:45:42;;;;;;;4.87;3.23;;;11.00;99.90;;;;;;4959665;28;20492;-65
2022/09/18 06:48:09;;;;;;;3.70;3.30;;;11.00;99.90;;;;;;4959435;28;20460;-64
2022/09/18 06:50:36;;;;;;;3.33;3.00;;;11.00;99.90;;;;;;4959678;28;20475;-64
2022/09/18 06:53:05;;;;;;;3.63;2.70;;;11.00;99.90;;;;;;4959166;28;20463;-64
2022/09/18 06:55:32;;;;;;;3.07;2.87;;;11.10;99.90;;;;;;4958892;28;20495;-64
2022/09/18 06:58:00;;;;;;;2.77;2.57;;;11.10;99.90;;;;;;4958978;28;20514;-64
2022/09/18 07:00:27;;;;;;;3.37;3.00;;;11.10;99.90;;;;;;4958562;28;20459;-64
2022/09/18 07:02:55;;;;;;;4.80;2.97;;;11.10;99.90;;;;;;4958864;28;20495;-64
2022/09/18 07:05:22;;;;;;;3.30;2.70;;;11.10;99.90;;;;;;4958756;28;20458;-64
2022/09/18 07:07:48;;;;;;;3.73;2.77;;;11.10;99.90;;;;;;4959762;28;20455;-64
2022/09/18 07:10:16;;;;;;;3.70;2.60;;;11.10;99.90;;;;;;4960426;28;20455;-64
2022/09/18 07:12:47;;;;;;;3.83;2.57;;;11.30;99.90;;;;;;4960836;28;20510;-64
2022/09/18 07:15:14;;;;;;;3.03;2.43;;;11.40;99.90;;;;;;4960496;28;20476;-64
2022/09/18 07:17:41;;;;;;;2.97;2.30;;;11.50;99.90;;;;;;4959235;28;20506;-64
2022/09/18 07:20:08;;;;;;;2.83;2.40;;;11.50;99.90;;;;;;4958625;28;20466;-64
2022/09/18 07:22:35;;;;;;;5.13;2.80;;;11.50;99.90;;;;;;4958779;28;20483;-64
2022/09/18 07:25:02;;;;;;;5.50;2.40;;;11.60;99.90;;;;;;4958440;28;20878;-64
2022/09/18 07:27:30;;;;;;;6.17;3.10;;;11.60;99.90;;;;;;4958457;28;20861;-64
2022/09/18 07:29:57;;;;;;;2.20;2.00;;;11.70;99.90;;;;;;4958354;28;20455;-64
2022/09/18 07:32:24;;;;;;;4.47;2.20;;;11.70;99.90;;;;;;4958218;28;20479;-66
2022/09/18 07:34:51;;;;;;;2.90;2.50;;;11.80;99.90;;;;;;4958504;28;20471;-65
2022/09/18 07:37:17;;;;;;;1.80;1.70;;;11.90;99.90;;;;;;4958332;28;20463;-65
2022/09/18 07:39:44;;;;;;;3.00;1.77;;;12.00;99.90;;;;;;4958520;28;20514;-65
2022/09/18 07:42:11;;;;;;;3.10;2.03;;;12.20;99.90;;;;;;4958288;28;20842;-66
2022/09/18 07:44:39;;;;;;;3.53;2.00;;;12.30;99.90;;;;;;4957278;28;20456;-65
2022/09/18 07:47:06;;;;;;;1.83;1.73;;;12.40;99.90;;;;;;4958359;28;20510;-65
2022/09/18 07:49:33;;;;;;;3.50;1.87;;;12.50;99.90;;;;;;4958081;28;20459;-66
2022/09/18 07:52:00;;;;;;;3.80;1.97;;;12.60;99.90;;;;;;4957882;28;20487;-65
2022/09/18 07:54:27;;;;;;;7.17;2.20;;;12.60;99.90;;;;;;4957535;28;20958;-67
2022/09/18 07:56:54;;;;;;;3.50;1.97;;;12.80;99.90;;;;;;4957999;28;20475;-65
2022/09/18 07:59:20;;;;;;;3.33;1.50;;;12.90;99.90;;;;;;4958000;28;20455;-65
2022/09/18 08:01:50;;;;;;;2.33;1.73;;;12.90;99.90;;;;;;4957630;28;20898;-66
2022/09/18 08:04:16;;;;;;;3.47;1.70;;;12.90;99.90;;;;;;4957819;28;20463;-65
2022/09/18 08:06:43;;;;;;;2.03;1.50;;;12.90;99.90;;;;;;4958945;28;20514;-65
2022/09/18 08:09:10;;;;;;;4.80;1.50;;;12.90;99.90;;;;;;4958284;28;20456;-65
2022/09/18 08:11:36;;;;;;;1.37;1.27;;;12.90;99.90;;;;;;4957876;28;20530;-65
2022/09/18 08:14:03;;;;;;;2.03;1.47;;;13.00;99.90;;;;;;4957722;28;20883;-65
2022/09/18 08:16:30;;;;;;;4.20;2.20;;;13.00;99.90;;;;;;4957686;28;20486;-65
2022/09/18 08:18:58;;;;;;;3.97;2.37;;;13.10;99.90;;;;;;4957930;28;20496;-65
2022/09/18 08:21:24;;;;;;;10.70;2.17;;;13.10;99.90;;;;;;4957824;28;20870;-65
2022/09/18 08:23:51;;;;;;;2.77;1.70;;;13.20;99.90;;;;;;4957582;28;20815;-65
2022/09/18 08:26:18;;;;;;;2.00;1.20;;;13.20;99.90;;;;;;4957685;28;20451;-65
2022/09/18 08:28:46;;;;;;;2.17;2.07;;;13.20;99.90;;;;;;4957308;28;20943;-65
2022/09/18 08:31:13;;;;;;;2.00;1.33;;;13.20;99.90;;;;;;4957222;28;20480;-65
2022/09/18 08:33:40;;;;;;;3.17;1.63;;;13.10;99.90;;;;;;4957696;28;20464;-65
2022/09/18 08:36:08;;;;;;;2.30;2.10;;;13.20;99.90;;;;;;4957026;28;21002;-66
2022/09/18 08:38:36;;;;;;;2.50;1.60;;;13.20;99.90;;;;;;4957056;28;20943;-65
2022/09/18 08:41:19;;;;;;;1.70;1.40;;;13.20;99.90;;;;;;4957245;28;20475;-66
2022/09/18 08:43:57;;;;;;;4.10;1.47;;;13.30;99.90;;;;;;4957341;28;20440;-65
2022/09/18 08:46:31;;;;;;;2.20;2.00;;;13.40;99.90;;;;;;4957123;28;20440;-65
2022/09/18 08:49:07;;;;;;;1.37;1.17;;;13.50;99.90;;;;;;4957180;28;20443;-65
2022/09/18 08:51:42;;;;;;;5.13;1.40;;;13.60;99.90;;;;;;4957354;28;20479;-65
2022/09/18 08:54:19;;;;;;;3.77;1.60;;;13.70;99.90;;;;;;4957118;28;20440;-65
2022/09/18 08:56:47;;;;;;;1.30;1.30;;;13.90;99.90;;;;;;4956274;28;20463;-65
2022/09/18 08:59:21;;;;;;;3.03;1.93;;;13.90;99.90;;;;;;4957088;28;20506;-66
2022/09/18 09:01:56;;;;;;;2.50;1.80;;;14.00;99.90;;;;;;4956443;28;20557;-67
2022/09/18 09:04:27;;;;;;;2.63;2.00;;;13.80;99.90;;;;;;4956659;29;20538;-66
2022/09/18 09:07:20;;;;;;;3.67;2.60;;;13.70;99.90;;;;;;4956702;28;20468;-65
2022/09/18 09:09:59;;;;;;;5.13;1.70;;;13.80;99.90;;;;;;4956740;28;20436;-65
2022/09/18 09:12:33;;;;;;;4.10;2.27;;;13.70;99.90;;;;;;4956632;28;21040;-64
2022/09/18 09:15:19;;;;;;;7.40;2.20;;;13.60;99.90;;;;;;4956813;28;20519;-64
2022/09/18 09:17:52;;;;;;;3.77;1.90;;;13.70;99.90;;;;;;4956502;28;20927;-65
2022/09/18 09:20:24;;;;;;;2.87;2.13;;;13.60;99.90;;;;;;4956593;28;20989;-64
2022/09/18 09:23:00;;;;;;;2.33;1.90;;;13.60;99.90;;;;;;4957257;28;20487;-64
2022/09/18 09:25:37;;;;;;;2.50;2.03;;;13.50;99.90;;;;;;4957071;28;20428;-66
2022/09/18 09:28:14;;;;;;;2.27;1.97;;;13.60;99.90;;;;;;4956887;28;20443;-70
2022/09/18 09:30:44;;;;;;;5.60;3.33;;;13.50;99.90;;;;;;4956865;28;20484;-65
2022/09/18 09:33:19;;;;;;;3.60;1.60;;;13.50;99.90;;;;;;4956986;28;20451;-65
2022/09/18 09:35:49;;;;;;;2.33;1.63;;;13.50;99.90;;;;;;4956859;28;20474;-71
2022/09/18 09:38:31;;;;;;;2.90;2.13;;;13.40;99.90;;;;;;4957122;28;20447;-70
2022/09/18 09:41:01;;;;;;;2.27;2.10;;;13.40;99.90;;;;;;4956233;28;20479;-72
2022/09/18 09:43:35;;;;;;;2.40;1.50;;;13.50;99.90;;;;;;4956719;28;20495;-72
2022/09/18 09:46:10;;;;;;;2.23;1.43;;;13.50;99.90;;;;;;4956967;28;20849;-73
2022/09/18 09:48:46;;;;;;;1.93;1.53;;;13.60;99.90;;;;;;4956623;28;20803;-75
2022/09/18 09:51:20;;;;;;;3.40;1.70;;;13.70;99.90;;;;;;4956914;28;20483;-76
2022/09/18 09:53:51;;;;;;;4.73;1.80;;;13.90;99.90;;;;;;4956835;28;20443;-76
2022/09/18 09:56:27;;;;;;;5.50;1.60;;;14.00;99.90;;;;;;4956560;28;20467;-76
2022/09/18 09:58:58;;;;;;;5.00;1.57;;;14.10;99.90;;;;;;4956681;28;20444;-75
2022/09/18 10:01:27;;;;;;;2.93;2.23;;;14.00;99.90;;;;;;4956255;28;20499;-75
2022/09/18 10:04:05;;;;;;;4.63;1.90;;;14.10;99.90;;;;;;4956604;28;20502;-76
2022/09/18 10:06:41;;;;;;;3.40;1.70;;;14.10;99.90;;;;;;4956156;28;20435;-75
2022/09/18 10:09:19;;;;;;;2.10;1.90;;;14.00;99.90;;;;;;4959251;28;20439;-76
2022/09/18 10:11:53;;;;;;;4.30;2.10;;;14.00;99.90;;;;;;4960674;28;20579;-76
2022/09/18 10:14:25;;;;;;;3.17;1.90;;;14.10;99.90;;;;;;4960009;28;20978;-75
2022/09/18 10:16:55;;;;;;;2.30;1.70;;;14.20;99.90;;;;;;4960058;28;20467;-76
2022/09/18 10:19:25;;;;;;;1.60;1.50;;;14.30;99.90;;;;;;4959856;28;20471;-75
2022/09/18 10:21:53;;;;;;;6.73;1.93;;;14.60;99.90;;;;;;4960734;28;20479;-74
2022/09/18 10:24:28;;;;;;;5.00;1.60;;;14.80;99.90;;;;;;4959552;28;20464;-75
2022/09/18 10:26:57;;;;;;;4.23;1.47;;;15.20;99.90;;;;;;4959796;28;20439;-75
2022/09/18 10:29:24;;;;;;;2.90;1.30;;;15.40;99.90;;;;;;4960141;28;20866;-65
2022/09/18 10:31:53;;;;;;;3.93;1.70;;;15.70;99.90;;;;;;4959890;28;20483;-64
2022/09/18 10:34:38;;;;;;;3.00;1.70;;;16.00;99.90;;;;;;4960194;28;20946;-66
2022/09/18 10:37:04;;;;;;;3.17;1.53;;;16.30;99.90;;;;;;4959986;28;20463;-65
2022/09/18 10:39:35;;;;;;;4.47;1.40;;;16.30;99.90;;;;;;4959935;28;20491;-64
2022/09/18 10:42:03;;;;;;;3.50;1.63;;;16.40;99.90;;;;;;4959895;28;20891;-65
2022/09/18 10:44:33;;;;;;;2.60;1.30;;;16.70;99.90;;;;;;4959729;28;20525;-65
2022/09/18 10:47:05;;;;;;;3.33;1.43;;;17.10;99.90;;;;;;4959430;28;20455;-65
2022/09/18 10:49:34;;;;;;;4.20;1.60;;;17.40;99.90;;;;;;4959779;28;20443;-65
2022/09/18 10:52:19;;;;;;;1.50;1.37;;;17.80;99.90;;;;;;4959607;28;20546;-65
2022/09/18 10:55:00;;;;;;;2.30;1.37;;;18.00;99.90;;;;;;4959674;28;20443;-65
2022/09/18 10:57:29;;;;;;;3.97;1.30;;;18.30;99.90;;;;;;4959571;28;20845;-65
2022/09/18 10:59:56;;;;;;;5.17;1.70;;;18.50;99.90;;;;;;4959408;28;20483;-61
2022/09/18 11:02:26;;;;;;;2.60;1.13;;;18.50;99.90;;;;;;4959177;28;20492;-62
2022/09/18 11:04:53;;;;;;;2.43;1.27;;;18.60;99.90;;;;;;4958985;28;20920;-62
2022/09/18 11:07:21;;;;;;;1.67;1.10;;;18.80;99.90;;;;;;4959868;28;20436;-62
2022/09/18 11:09:48;;;;;;;4.27;1.20;;;19.00;99.90;;;;;;4959413;28;20463;-64
2022/09/18 11:12:19;;;;;;;2.43;1.50;;;19.10;99.90;;;;;;4959294;28;20522;-64
2022/09/18 11:14:50;;;;;;;3.03;1.17;;;19.10;99.90;;;;;;4959280;28;20440;-64
2022/09/18 11:17:25;;;;;;;0.80;0.80;;;19.10;99.90;;;;;;4959904;28;20470;-64
2022/09/18 11:19:54;;;;;;;2.20;0.93;;;19.10;99.90;;;;;;4959072;28;20498;-64
2022/09/18 11:22:37;;;;;;;1.80;1.00;;;19.20;99.90;;;;;;4958917;28;20484;-64
2022/09/18 11:25:21;;;;;;;3.40;1.50;;;19.30;99.90;;;;;;4958983;28;20443;-64
2022/09/18 11:27:51;;;;;;;1.83;1.00;;;19.40;99.90;;;;;;4959045;28;20467;-66
2022/09/18 11:30:24;;;;;;;0.90;0.90;;;19.70;99.90;;;;;;4958867;28;20463;-65
2022/09/18 11:32:55;;;;;;;2.33;1.17;;;19.90;99.90;;;;;;4958847;28;20447;-65
2022/09/18 11:35:22;;;;;;;3.13;1.53;;;20.20;99.50;;;;;;4958457;28;20451;-64
2022/09/18 11:37:52;;;;;;;1.10;1.10;;;20.40;99.90;;;;;;4958369;28;20486;-65
2022/09/18 11:40:22;;;;;;;1.83;0.97;;;20.60;99.90;;;;;;4958357;28;20582;-64
2022/09/18 11:42:53;;;;;;;1.57;1.23;;;20.60;98.20;;;;;;4958486;28;20514;-64
2022/09/18 11:45:46;;;;;;;1.60;1.10;;;20.40;97.80;;;;;;4959353;28;20478;-64
2022/09/18 11:48:23;;;;;;;1.97;1.00;;;20.20;97.50;;;;;;4958456;28;20478;-62
2022/09/18 11:50:54;;;;;;;1.37;0.90;;;20.30;95.10;;;;;;4957994;28;20978;-62
2022/09/18 11:53:24;;;;;;;3.47;1.20;;;20.10;96.00;;;;;;4958286;28;20443;-62
2022/09/18 11:55:57;;;;;;;1.73;0.93;;;20.00;94.20;;;;;;4958277;28;20506;-62
2022/09/18 11:58:32;;;;;;;8.90;1.60;;;20.00;94.70;;;;;;4957938;28;20880;-62
2022/09/18 12:01:17;;;;;;;1.27;0.97;;;19.60;94.40;;;;;;4957942;28;20538;-62
2022/09/18 12:03:49;;;;;;;1.90;1.43;;;19.40;98.20;;;;;;4958218;28;20926;-60
2022/09/18 12:06:23;;;;;;;4.10;1.53;;;19.20;94.70;;;;;;4957992;28;20437;-60
2022/09/18 12:08:56;;;;;;;1.67;1.20;;;19.20;98.30;;;;;;4958148;28;20479;-60
2022/09/18 12:11:29;;;;;;;1.10;1.00;;;19.40;98.00;;;;;;4958353;28;20487;-60
2022/09/18 12:14:15;;;;;;;1.30;0.80;;;19.60;97.90;;;;;;4959438;28;20851;-60
2022/09/18 12:16:47;;;;;;;1.30;1.10;;;19.80;94.60;;;;;;4959620;28;20467;-61
2022/09/18 12:19:20;;;;;;;1.13;1.03;;;19.60;94.70;;;;;;4958693;28;20439;-60
2022/09/18 12:21:56;;;;;;;1.93;1.27;;;19.80;94.10;;;;;;4957587;28;20890;-60
2022/09/18 12:24:22;;;;;;;0.80;0.80;;;19.70;94.70;;;;;;4957696;28;20443;-60
2022/09/18 12:27:01;;;;;;;2.33;1.20;;;19.60;94.20;;;;;;4957823;28;20514;-60
2022/09/18 12:29:51;;;;;;;4.40;1.10;;;19.60;94.30;;;;;;4957775;28;20445;-61
2022/09/18 12:32:39;;;;;;;1.37;1.03;;;19.60;94.50;;;;;;4954684;28;20498;-60
2022/09/18 12:35:14;;;;;;;2.10;1.33;;;19.30;92.10;;;;;;4957568;28;20498;-60
2022/09/18 12:37:52;;;;;;;1.00;1.00;;;19.10;93.10;;;;;;4957616;28;20478;-60
2022/09/18 12:40:43;;;;;;;2.73;1.73;;;18.90;92.70;;;;;;4957306;28;20502;-60
2022/09/18 12:43:45;;;;;;;1.80;1.17;;;18.80;94.80;;;;;;4957042;28;20867;-60
2022/09/18 12:46:36;;;;;;;1.97;1.00;;;18.60;92.40;;;;;;4926847;28;20847;-60
2022/09/18 12:49:15;;;;;;;1.87;1.10;;;18.40;93.80;;;;;;4957180;28;20440;-60
2022/09/18 12:51:46;;;;;;;1.17;1.00;;;18.00;93.00;;;;;;4957293;28;20482;-60
2022/09/18 12:54:42;;;;;;;2.47;0.80;;;17.80;94.70;;;;;;4958920;28;20526;-61
2022/09/18 12:57:21;;;;;;;3.90;1.00;;;17.80;93.80;;;;;;4953719;28;20525;-60
2022/09/18 12:59:53;;;;;;;1.80;0.90;;;17.70;93.80;;;;;;4958395;28;20443;-61
2022/09/18 13:02:42;;;;;;;1.07;1.00;;;17.70;94.10;;;;;;4957474;28;20850;-61
2022/09/18 13:05:16;;;;;;;1.80;1.00;;;17.60;95.40;;;;;;4957210;28;20468;-61
2022/09/18 13:07:49;;;;;;;1.03;0.90;;;17.40;94.80;;;;;;4957413;28;20501;-61
2022/09/18 13:10:22;;;;;;;2.40;1.20;;;17.20;93.60;;;;;;4956563;28;20896;-61
2022/09/18 13:12:55;;;;;;;3.77;0.90;;;17.00;95.20;;;;;;4956581;28;20915;-61
2022/09/18 13:15:26;;;;;;;1.20;1.07;;;16.80;95.70;;;;;;4956932;28;20472;-61
2022/09/18 13:18:00;;;;;;;2.73;0.73;;;16.70;95.90;;;;;;4956783;28;20495;-60
2022/09/18 13:20:31;;;;;;;1.73;0.93;;;16.60;97.10;;;;;;4956603;28;20444;-61
2022/09/18 13:23:00;;;;;;;3.37;0.87;;;16.50;97.60;;;;;;4956622;28;20591;-61
2022/09/18 13:25:29;;;;;;;2.17;1.40;;;16.60;98.60;;;;;;4956461;28;20514;-60
2022/09/18 13:27:57;;;;;;;1.90;1.13;;;16.70;98.80;;;;;;4957691;28;20466;-61
2022/09/18 13:30:27;;;;;;;2.77;1.00;;;16.80;98.70;;;;;;4956584;28;20867;-61
2022/09/18 13:32:57;;;;;;;1.17;0.87;;;16.80;97.50;;;;;;4956336;28;20926;-62
2022/09/18 13:35:27;;;;;;;2.13;1.10;;;16.90;98.80;;;;;;4956451;28;20455;-61
2022/09/18 13:38:06;;;;;;;0.97;0.93;;;16.90;98.80;;;;;;4956724;28;20555;-64
2022/09/18 13:40:35;;;;;;;1.33;0.90;;;16.90;97.80;;;;;;4957548;28;20446;-62
2022/09/18 13:43:33;;;;;;;2.43;0.90;;;16.80;97.50;;;;;;4956185;28;20834;-63
2022/09/18 13:46:01;;;;;;;1.37;0.90;;;16.80;97.00;;;;;;4956415;28;20444;-66
2022/09/18 13:48:33;;;;;;;1.13;0.90;;;16.60;96.40;;;;;;4956549;28;20448;-63
2022/09/18 13:51:02;;;;;;;1.80;1.20;;;16.60;96.60;;;;;;4956393;28;20570;-64
2022/09/18 13:53:38;;;;;;;3.13;0.90;;;16.50;95.90;;;;;;4955918;28;21005;-61
2022/09/18 13:56:05;;;;;;;0.90;0.90;;;16.50;97.20;;;;;;4956352;28;20515;-62
2022/09/18 13:58:49;;;;;;;4.63;1.20;;;16.50;97.30;;;;;;4957060;28;20490;-63
2022/09/18 14:01:55;;;;;;;1.63;0.90;;;16.50;98.40;;;;;;4956854;28;20483;-62
2022/09/18 14:04:59;;;;;;;3.07;1.00;;;16.40;98.40;;;;;;4956780;28;20439;-62
2022/09/18 14:07:47;;;;;;;1.57;0.73;;;16.30;98.20;;;;;;4956269;28;20435;-62
2022/09/18 14:10:33;;;;;;;2.17;1.40;;;16.20;98.90;;;;;;4955991;28;20440;-63
2022/09/18 14:13:27;;;;;;;3.50;1.00;;;16.10;99.90;;;;;;4956272;28;20440;-65
2022/09/18 14:15:56;;;;;;;1.90;1.30;;;16.00;99.90;;;;;;4955996;28;20475;-63
2022/09/18 14:18:27;;;;;;;1.50;1.40;;;16.00;99.90;;;;;;4955842;28;20530;-63
2022/09/18 14:21:11;;;;;;;1.70;1.03;;;16.00;99.90;;;;;;4955772;28;20543;-62
2022/09/18 14:24:01;;;;;;;1.27;0.70;;;16.00;99.90;;;;;;4955868;29;20951;-61
2022/09/18 14:27:11;;;;;;;3.50;1.47;;;16.10;99.90;;;;;;4956042;29;20472;-61
2022/09/18 14:29:38;;;;;;;1.63;1.20;;;16.10;99.90;;;;;;4955738;28;20444;-62
2022/09/18 14:32:17;;;;;;;2.03;1.40;;;16.10;99.90;;;;;;4955788;28;20490;-60
2022/09/18 14:34:44;;;;;;;2.50;1.23;;;16.20;99.90;;;;;;4955744;28;20440;-61
2022/09/18 14:37:24;;;;;;;2.03;1.00;;;16.30;99.90;;;;;;4955855;28;20564;-61
2022/09/18 14:39:52;;;;;;;2.47;1.10;;;16.30;99.90;;;;;;4956666;28;20444;-61
2022/09/18 14:42:27;;;;;;;1.57;1.00;;;16.30;99.90;;;;;;4955459;28;20979;-61
2022/09/18 14:44:58;;;;;;;1.70;1.60;;;16.30;99.90;;;;;;4955968;28;20527;-61
2022/09/18 14:47:27;;;;;;;2.77;1.10;;;16.20;99.70;;;;;;4955611;28;20436;-61
2022/09/18 14:49:54;;;;;;;2.70;1.40;;;16.10;99.90;;;;;;4955300;28;20966;-61
2022/09/18 14:52:25;;;;;;;2.30;1.27;;;16.00;99.70;;;;;;4956049;28;20475;-61
2022/09/18 14:54:53;;;;;;;2.03;1.40;;;15.90;99.60;;;;;;4957995;28;20503;-60
2022/09/18 14:57:24;;;;;;;2.67;1.63;;;15.90;99.90;;;;;;4959542;28;20538;-61
2022/09/18 14:59:53;;;;;;;1.90;1.00;;;15.90;99.90;;;;;;4959121;28;20892;-61
2022/09/18 15:02:24;;;;;;;1.27;0.90;;;15.90;99.90;;;;;;4958995;28;20963;-61
2022/09/18 15:04:51;;;;;;;2.50;0.90;;;15.90;99.70;;;;;;4958760;28;21048;-61
2022/09/18 15:07:19;;;;;;;2.17;1.10;;;15.80;99.90;;;;;;4958957;28;20519;-60
2022/09/18 15:09:53;;;;;;;1.47;1.30;;;15.80;99.90;;;;;;4959116;28;20455;-61
2022/09/18 15:12:22;;;;;;;1.47;0.83;;;15.80;99.90;;;;;;4958650;28;20986;-61
2022/09/18 15:14:49;;;;;;;3.70;1.07;;;15.80;99.90;;;;;;4958790;28;20495;-61
2022/09/18 15:17:19;;;;;;;2.77;1.27;;;15.80;99.90;;;;;;4958767;28;20530;-60
2022/09/18 15:19:57;;;;;;;3.80;1.23;;;15.70;99.90;;;;;;4958714;28;20455;-60
2022/09/18 15:22:25;;;;;;;2.80;1.30;;;15.70;99.90;;;;;;4958516;28;20479;-60
2022/09/18 15:24:54;;;;;;;2.33;1.17;;;15.60;99.90;;;;;;4958465;28;20486;-60
2022/09/18 15:27:22;;;;;;;1.60;0.90;;;15.60;99.90;;;;;;4959213;28;20851;-60
2022/09/18 15:29:54;;;;;;;3.77;1.30;;;15.60;99.90;;;;;;4958488;28;20456;-60
2022/09/18 15:32:25;;;;;;;4.90;1.40;;;15.50;99.90;;;;;;4958870;28;20554;-60
2022/09/18 15:34:53;;;;;;;1.83;1.43;;;15.50;99.90;;;;;;4958749;28;20440;-61
2022/09/18 15:37:22;;;;;;;2.70;1.37;;;15.30;99.90;;;;;;4958476;28;20486;-60
2022/09/18 15:40:03;;;;;;;1.40;1.20;;;15.30;99.90;;;;;;4958527;28;20459;-60
2022/09/18 15:42:32;;;;;;;3.30;1.20;;;15.30;99.90;;;;;;4958848;28;20483;-60
2022/09/18 15:45:17;;;;;;;0.90;0.83;;;15.30;99.90;;;;;;4958338;28;20814;-60
2022/09/18 15:47:44;;;;;;;3.90;1.50;;;15.30;99.90;;;;;;4958716;28;20432;-61
2022/09/18 15:50:35;;;;;;;2.13;0.90;;;15.20;99.90;;;;;;4958191;28;20959;-61
2022/09/18 15:53:13;;;;;;;2.80;1.57;;;15.20;99.90;;;;;;4958683;28;20463;-61
2022/09/18 15:55:50;;;;;;;1.80;0.90;;;15.10;99.90;;;;;;4958032;28;20979;-61
2022/09/18 15:58:27;;;;;;;2.63;1.00;;;15.00;99.90;;;;;;4960960;28;20558;-61
2022/09/18 16:00:56;;;;;;;4.77;1.27;;;15.00;99.90;;;;;;4960910;28;20495;-61
2022/09/18 16:03:26;;;;;;;3.30;1.20;;;15.00;99.90;;;;;;4959678;28;20825;-61
2022/09/18 16:05:56;;;;;;;1.00;0.67;;;15.00;99.90;;;;;;4956998;28;20834;-61
2022/09/18 16:08:27;;;;;;;1.90;1.07;;;14.90;99.90;;;;;;4957994;28;20851;-60
2022/09/18 16:10:58;;;;;;;2.40;1.33;;;15.00;99.90;;;;;;4957638;28;20979;-61
2022/09/18 16:13:35;;;;;;;2.30;1.00;;;15.00;99.90;;;;;;4957505;28;20463;-61
2022/09/18 16:16:24;;;;;;;5.60;1.30;;;15.20;99.90;;;;;;4957755;28;20192;-60
2022/09/18 16:18:55;;;;;;;1.50;0.90;;;15.30;99.90;;;;;;4957549;28;20467;-60
2022/09/18 16:21:24;;;;;;;2.97;1.10;;;15.50;99.90;;;;;;4956728;28;20475;-63
2022/09/18 16:23:53;;;;;;;6.23;1.10;;;15.60;99.90;;;;;;4957793;28;20191;-60
2022/09/18 16:26:26;;;;;;;1.00;1.00;;;15.70;99.90;;;;;;4957486;28;20455;-60
2022/09/18 16:28:55;;;;;;;7.73;1.47;;;15.60;99.90;;;;;;4958063;28;20440;-60
2022/09/18 16:31:24;;;;;;;2.33;1.93;;;15.50;99.90;;;;;;4957428;29;20559;-60
2022/09/18 16:33:55;;;;;;;3.03;1.20;;;15.40;99.90;;;;;;4957865;28;20444;-60
2022/09/18 16:36:29;;;;;;;1.43;0.80;;;15.40;99.90;;;;;;4957470;28;20450;-62
2022/09/18 16:38:56;;;;;;;1.60;1.50;;;15.30;99.90;;;;;;4957179;28;20467;-61
2022/09/18 16:41:24;;;;;;;1.43;1.00;;;15.30;99.90;;;;;;4957115;28;20476;-60
2022/09/18 16:43:52;;;;;;;1.63;0.90;;;15.20;99.90;;;;;;4957470;28;20459;-62
2022/09/18 16:46:22;;;;;;;2.70;1.10;;;15.10;99.90;;;;;;4957584;28;20464;-60
2022/09/18 16:48:49;;;;;;;1.53;0.87;;;15.00;99.90;;;;;;4957645;28;20452;-61
2022/09/18 16:51:16;;;;;;;1.87;1.00;;;15.00;99.90;;;;;;4957476;28;20531;-62
2022/09/18 16:53:43;;;;;;;2.63;1.10;;;14.90;99.90;;;;;;4957300;28;20455;-60
2022/09/18 16:56:15;;;;;;;1.83;0.90;;;14.80;99.90;;;;;;4957163;28;20512;-62
2022/09/18 16:58:44;;;;;;;1.73;1.10;;;14.70;99.90;;;;;;4957103;28;20824;-61
2022/09/18 17:01:11;;;;;;;1.30;0.93;;;14.70;99.90;;;;;;4956985;28;20495;-61
2022/09/18 17:03:38;;;;;;;3.60;1.07;;;14.60;99.90;;;;;;4957148;28;20514;-61
2022/09/18 17:06:05;;;;;;;3.50;1.07;;;14.60;99.90;;;;;;4957478;28;20462;-62
2022/09/18 17:08:31;;;;;;;1.90;1.10;;;14.50;99.90;;;;;;4957319;28;20514;-62
2022/09/18 17:10:58;;;;;;;2.20;1.23;;;14.50;99.90;;;;;;4957151;28;20476;-61